Time;durP1;ratioP1;P1;durP2;ratioP2;P2;SDS_P1;SDS_P2;PMS_P1;PMS_P2;Temp;Humidity;BMP_temperature;BMP_pressure;BME280_temperature;BME280_humidity;BME280_pressure;Samples;Min_cycle;Max_cycle;Signal;HPM_P1;HPM_P2
2022/09/11 00:01:12;;;;;;;;;44.00;37.50;;;;;17.00;85.16;101509.50;5022265;28;45335;-73
2022/09/11 00:03:37;;;;;;;;;40.67;34.33;;;;;17.08;84.74;101510.41;5022302;28;45409;-73
2022/09/11 00:06:06;;;;;;;;;42.00;35.33;;;;;16.98;84.81;101502.69;5022158;28;45500;-73
2022/09/11 00:08:32;;;;;;;;;38.67;33.33;;;;;16.96;84.64;101512.78;5021908;28;47450;-73
2022/09/11 00:11:24;;;;;;;;;35.33;32.00;;;;;16.91;84.64;101524.94;5022113;28;45263;-73
2022/09/11 00:13:51;;;;;;;;;28.67;27.67;;;;;16.88;85.25;101521.84;5023373;28;45544;-73
2022/09/11 00:16:21;;;;;;;;;30.00;27.33;;;;;16.87;84.80;101522.84;5027401;28;45542;-73
2022/09/11 00:18:47;;;;;;;;;29.67;28.33;;;;;16.76;84.60;101517.00;5026437;28;46371;-73
2022/09/11 00:21:15;;;;;;;;;32.33;30.00;;;;;16.79;84.87;101516.63;5021794;28;45313;-73
2022/09/11 00:23:41;;;;;;;;;31.33;28.00;;;;;16.78;85.16;101504.25;5021904;28;45456;-73
2022/09/11 00:26:06;;;;;;;;;30.00;29.00;;;;;16.72;85.24;101510.38;5021610;28;45411;-73
2022/09/11 00:28:33;;;;;;;;;31.33;28.00;;;;;16.76;85.12;101516.22;5021521;28;45275;-73
2022/09/11 00:31:00;;;;;;;;;29.00;28.00;;;;;16.74;84.88;101515.56;5020132;28;45279;-73
2022/09/11 00:33:27;;;;;;;;;29.33;28.00;;;;;16.70;85.31;101514.31;5021791;28;45358;-73
2022/09/11 00:35:58;;;;;;;;;35.00;30.67;;;;;16.70;85.28;101515.13;5033951;28;46267;-73
2022/09/11 00:38:28;;;;;;;;;31.33;30.00;;;;;16.70;85.29;101514.31;5021358;28;45342;-73
2022/09/11 00:40:57;;;;;;;;;37.00;33.00;;;;;16.62;84.81;101505.38;5021536;28;45520;-73
2022/09/11 00:43:22;;;;;;;;;39.00;34.00;;;;;16.68;84.50;101511.81;5024880;28;45336;-73
2022/09/11 00:46:01;;;;;;;;;33.33;30.00;;;;;16.59;84.83;101494.19;5035175;28;45928;-73
2022/09/11 00:48:33;;;;;;;;;28.33;28.00;;;;;16.58;84.94;101505.97;5023852;28;47280;-73
2022/09/11 00:51:02;;;;;;;;;30.00;28.33;;;;;16.59;84.77;101513.81;5033188;28;45393;-73
2022/09/11 00:53:32;;;;;;;;;28.67;27.67;;;;;16.56;84.92;101510.69;5017677;28;45331;-73
2022/09/11 00:56:04;;;;;;;;;28.67;27.67;;;;;16.57;85.15;101509.66;5026039;28;46340;-72
2022/09/11 00:58:36;;;;;;;;;29.33;28.00;;;;;16.53;85.09;101503.88;5021117;28;48023;-73
2022/09/11 01:01:02;;;;;;;;;28.67;27.33;;;;;16.55;85.09;101499.13;5017629;28;45378;-73
2022/09/11 01:03:27;;;;;;;;;29.33;29.00;;;;;16.51;84.85;101493.34;5018001;28;45393;-73
2022/09/11 01:05:53;;;;;;;;;34.00;31.33;;;;;16.50;84.89;101498.88;5018019;28;45270;-73
2022/09/11 01:08:19;;;;;;;;;41.25;34.50;;;;;16.41;84.87;101492.84;5017687;28;45436;-73
2022/09/11 01:10:47;;;;;;;;;45.75;38.50;;;;;16.50;85.19;101502.41;5017805;28;45382;-73
2022/09/11 01:13:34;;;;;;;;;47.75;40.25;;;;;16.48;85.18;101498.25;5017578;28;45337;-73
2022/09/11 01:16:07;;;;;;;;;57.00;46.25;;;;;16.41;84.95;101498.22;5022644;28;46117;-73
2022/09/11 01:18:51;;;;;;;;;43.00;37.00;;;;;16.41;85.38;101495.53;5024181;28;45913;-73
2022/09/11 01:21:55;;;;;;;;;43.00;36.00;;;;;16.41;85.21;101499.03;5017672;28;45476;-73
2022/09/11 01:24:31;;;;;;;;;47.75;39.75;;;;;16.43;85.29;101503.38;5047310;28;46020;-73
2022/09/11 01:27:27;;;;;;;;;50.25;41.25;;;;;16.40;85.45;101488.47;5017527;28;45341;-73
2022/09/11 01:30:01;;;;;;;;;52.25;42.00;;;;;16.34;85.23;101478.56;5017491;28;45333;-73
2022/09/11 01:32:40;;;;;;;;;50.25;41.75;;;;;16.33;85.28;101484.94;5017466;28;45334;-73
2022/09/11 01:35:12;;;;;;;;;46.50;38.25;;;;;16.33;85.09;101487.59;5017755;28;45404;-73
2022/09/11 01:37:56;;;;;;;;;45.25;37.50;;;;;16.25;85.16;101470.63;5017138;28;45439;-73
2022/09/11 01:41:00;;;;;;;;;40.67;33.33;;;;;16.26;85.66;101488.38;5026952;28;47334;-73
2022/09/11 01:43:33;;;;;;;;;35.00;31.67;;;;;16.18;85.48;101475.13;5024489;28;45385;-73
2022/09/11 01:46:02;;;;;;;;;33.00;30.33;;;;;16.17;85.49;101481.53;5017304;28;45259;-73
2022/09/11 01:48:38;;;;;;;;;35.33;31.33;;;;;16.15;85.33;101475.50;5017511;28;45322;-73
2022/09/11 01:51:07;;;;;;;;;36.67;33.00;;;;;16.11;86.17;101480.44;5030826;28;47601;-73
2022/09/11 01:53:37;;;;;;;;;41.33;33.33;;;;;16.12;86.22;101475.91;5035523;28;45307;-73
2022/09/11 01:56:16;;;;;;;;;33.33;30.00;;;;;16.17;86.44;101488.72;5025637;28;45361;-73
2022/09/11 01:58:43;;;;;;;;;33.00;30.67;;;;;16.13;87.08;101478.38;5016403;28;45384;-73
2022/09/11 02:01:17;;;;;;;;;41.00;33.67;;;;;16.20;87.34;101482.97;5025675;28;47194;-73
2022/09/11 02:03:46;;;;;;;;;42.67;35.33;;;;;16.26;86.70;101483.00;5019899;28;45455;-73
2022/09/11 02:06:20;;;;;;;;;34.33;31.33;;;;;16.26;87.76;101488.38;5017206;28;45343;-73
2022/09/11 02:08:50;;;;;;;;;34.00;30.67;;;;;16.20;88.30;101483.81;5017050;28;45443;-73
2022/09/11 02:11:17;;;;;;;;;38.33;33.00;;;;;16.12;88.33;101482.09;5016921;28;46468;-73
2022/09/11 02:13:46;;;;;;;;;37.67;32.67;;;;;16.23;87.92;101490.63;5016582;28;45315;-73
2022/09/11 02:16:42;;;;;;;;;37.67;33.67;;;;;16.19;88.05;101486.69;5022009;28;45486;-73
2022/09/11 02:19:14;;;;;;;;;37.00;31.00;;;;;16.15;88.26;101488.91;5018375;28;45317;-73
2022/09/11 02:21:40;;;;;;;;;35.33;32.33;;;;;16.10;88.32;101489.50;5016960;28;45460;-73
2022/09/11 02:24:06;;;;;;;;;34.00;30.67;;;;;16.11;88.04;101482.28;5016685;28;45265;-73
2022/09/11 02:26:38;;;;;;;;;32.00;30.00;;;;;16.08;87.96;101478.16;5017099;28;45468;-73
2022/09/11 02:29:04;;;;;;;;;46.25;38.75;;;;;16.13;88.08;101483.75;5016457;28;45256;-73
2022/09/11 02:31:30;;;;;;;;;49.00;41.00;;;;;16.14;88.15;101489.94;5023148;28;47477;-73
2022/09/11 02:33:56;;;;;;;;;38.67;32.33;;;;;16.15;88.04;101483.56;5022663;28;45228;-73
2022/09/11 02:36:28;;;;;;;;;42.75;35.25;;;;;16.19;88.40;101490.19;5016852;28;45522;-73
2022/09/11 02:39:50;;;;;;;;;40.75;36.00;;;;;16.25;88.02;101485.91;5028163;28;45341;-73
2022/09/11 02:42:37;;;;;;;;;45.00;37.00;;;;;16.25;88.73;101496.66;5001722;28;46489;-73
2022/09/11 02:45:13;;;;;;;;;46.50;37.75;;;;;16.22;88.16;101489.00;4994387;28;45408;-73
2022/09/11 02:48:00;;;;;;;;;40.00;34.00;;;;;16.24;87.81;101490.44;5012328;28;45511;-73
2022/09/11 02:50:33;;;;;;;;;40.33;35.00;;;;;16.25;88.43;101489.41;5025029;28;47363;-73
2022/09/11 02:53:12;;;;;;;;;41.67;35.00;;;;;16.23;87.67;101480.75;5023528;28;45309;-73
2022/09/11 02:56:04;;;;;;;;;42.67;36.00;;;;;16.24;88.18;101494.97;5016489;28;45364;-73
2022/09/11 02:58:36;;;;;;;;;35.67;31.33;;;;;16.23;88.13;101493.31;5016297;28;45472;-73
2022/09/11 03:01:02;;;;;;;;;30.67;29.67;;;;;16.17;87.97;101484.19;5024060;28;46307;-73
2022/09/11 03:03:42;;;;;;;;;38.00;33.00;;;;;16.27;87.83;101484.69;5020763;28;45412;-73
2022/09/11 03:06:13;;;;;;;;;49.75;41.75;;;;;16.22;88.00;101480.94;5016296;28;45227;-73
2022/09/11 03:08:39;;;;;;;;;47.00;39.00;;;;;16.22;87.92;101484.44;5014419;28;45312;-73
2022/09/11 03:11:08;;;;;;;;;39.33;33.33;;;;;16.22;88.35;101484.44;5018894;28;45482;-73
2022/09/11 03:13:33;;;;;;;;;32.67;30.00;;;;;16.17;88.66;101481.53;5015703;28;45450;-73
2022/09/11 03:16:03;;;;;;;;;33.33;29.67;;;;;16.15;89.46;101484.38;5019241;28;45369;-73
2022/09/11 03:18:29;;;;;;;;;28.67;27.67;;;;;16.16;88.63;101482.53;5023392;28;45251;-73
2022/09/11 03:20:54;;;;;;;;;42.67;35.00;;;;;16.13;88.88;101489.09;5033263;28;45775;-73
2022/09/11 03:23:20;;;;;;;;;77.00;70.25;;;;;16.14;88.68;101479.22;5025341;28;45574;-73
2022/09/11 03:25:46;;;;;;;;;90.00;82.00;;;;;16.12;88.59;101475.91;5028027;28;45242;-73
2022/09/11 03:28:11;;;;;;;;;55.50;43.75;;;;;16.15;88.21;101478.19;5016209;28;45217;-73
2022/09/11 03:30:38;;;;;;;;;48.50;39.50;;;;;16.13;88.41;101470.34;5015556;28;45389;-73
2022/09/11 03:33:03;;;;;;;;;31.33;28.67;;;;;16.33;88.48;101476.88;5016168;28;45285;-73
2022/09/11 03:35:29;;;;;;;;;31.00;28.00;;;;;16.43;87.78;101479.22;5015940;28;45378;-73
2022/09/11 03:37:54;;;;;;;;;25.33;25.33;;;;;16.18;87.61;101475.13;5015809;28;45375;-73
2022/09/11 03:40:20;;;;;;;;;32.00;26.67;;;;;16.23;88.18;101479.91;5015857;28;45510;-73
2022/09/11 03:42:46;;;;;;;;;26.00;24.67;;;;;16.30;88.09;101477.25;5015750;28;46621;-73
2022/09/11 03:45:13;;;;;;;;;24.67;24.00;;;;;16.41;87.53;101469.50;5015522;28;45456;-73
2022/09/11 03:47:39;;;;;;;;;26.33;25.67;;;;;16.20;87.41;101467.72;5015854;28;45401;-73
2022/09/11 03:50:04;;;;;;;;;28.00;27.00;;;;;16.08;88.40;101466.59;5018414;28;45472;-73
2022/09/11 03:52:30;;;;;;;;;25.33;25.33;;;;;16.08;88.79;101470.09;5026841;28;46555;-73
2022/09/11 03:54:56;;;;;;;;;21.67;20.00;;;;;16.06;88.61;101476.66;5015578;28;45285;-73
2022/09/11 03:57:21;;;;;;;;;24.00;23.00;;;;;16.10;88.17;101469.91;5015832;28;45314;-73
2022/09/11 03:59:46;;;;;;;;;22.00;21.33;;;;;16.02;88.19;101466.31;5015428;28;45480;-73
2022/09/11 04:02:12;;;;;;;;;24.67;22.67;;;;;15.98;88.31;101464.25;5015308;28;45565;-73
2022/09/11 04:04:37;;;;;;;;;26.33;25.33;;;;;15.98;88.54;101473.09;5024868;28;45325;-73
2022/09/11 04:07:02;;;;;;;;;21.33;21.00;;;;;16.02;88.58;101471.69;5031630;28;45408;-73
2022/09/11 04:09:28;;;;;;;;;30.67;28.67;;;;;16.09;88.23;101470.91;5015497;28;45241;-73
2022/09/11 04:11:54;;;;;;;;;21.67;19.67;;;;;16.09;88.61;101463.72;5044741;28;47357;-73
2022/09/11 04:14:21;;;;;;;;;23.67;23.33;;;;;16.07;89.34;101459.56;5015037;28;45302;-73
2022/09/11 04:16:46;;;;;;;;;28.00;25.00;;;;;16.06;89.24;101468.63;5027002;28;45394;-73
2022/09/11 04:19:13;;;;;;;;;25.50;25.50;;;;;16.03;91.07;101478.72;5033582;28;46299;-73
2022/09/11 04:21:39;;;;;;;;;28.67;25.67;;;;;16.02;90.78;101470.88;5026378;28;46396;-73
2022/09/11 04:24:04;;;;;;;;;28.67;24.00;;;;;16.01;90.73;101480.75;5030764;28;45303;-73
2022/09/11 04:26:31;;;;;;;;;26.67;24.00;;;;;15.98;90.56;101477.66;5019032;28;45337;-73
2022/09/11 04:28:58;;;;;;;;;25.00;22.00;;;;;16.02;90.43;101487.75;5028614;28;46328;-73
2022/09/11 04:31:25;;;;;;;;;26.33;26.00;;;;;15.95;90.62;101478.81;5018497;28;45456;-73
2022/09/11 04:33:50;;;;;;;;;22.33;20.67;;;;;15.99;90.30;101481.97;5030315;28;45341;-73
2022/09/11 04:36:17;;;;;;;;;28.33;25.00;;;;;16.03;90.63;101488.59;5018912;28;45328;-73
2022/09/11 04:38:44;;;;;;;;;25.00;23.33;;;;;16.04;90.12;101484.91;5018163;28;45583;-73
2022/09/11 04:41:10;;;;;;;;;26.00;22.00;;;;;16.02;90.88;101485.09;5031325;28;47528;-73
2022/09/11 04:43:38;;;;;;;;;24.67;24.33;;;;;16.05;91.31;101488.41;5017987;28;45244;-73
2022/09/11 04:46:05;;;;;;;;;25.33;22.33;;;;;16.07;90.60;101497.09;5018261;28;45444;-73
2022/09/11 04:48:32;;;;;;;;;29.67;27.00;;;;;16.03;91.41;101483.25;5018096;28;45395;-73
2022/09/11 04:51:02;;;;;;;;;25.67;25.00;;;;;15.99;92.06;101492.69;5028091;28;45421;-73
2022/09/11 04:53:28;;;;;;;;;22.33;22.33;;;;;15.95;92.56;101489.53;5020646;28;45245;-73
2022/09/11 04:56:04;;;;;;;;;26.33;23.33;;;;;15.98;92.37;101497.22;5018138;28;45343;-73
2022/09/11 04:58:30;;;;;;;;;29.33;25.67;;;;;15.99;92.19;101498.91;5017533;28;46478;-73
2022/09/11 05:00:55;;;;;;;;;29.33;27.33;;;;;15.99;92.93;101506.94;5024736;28;48249;-73
2022/09/11 05:03:20;;;;;;;;;23.67;22.00;;;;;16.05;92.18;101496.47;5023417;28;45307;-73
2022/09/11 05:05:46;;;;;;;;;26.33;23.00;;;;;16.01;92.00;101482.59;5018239;28;45317;-73
2022/09/11 05:08:11;;;;;;;;;22.67;22.00;;;;;16.06;92.08;101495.44;5017705;28;45359;-73
2022/09/11 05:10:37;;;;;;;;;23.67;21.33;;;;;16.11;91.74;101499.22;5017709;28;45494;-73
2022/09/11 05:13:03;;;;;;;;;22.67;22.67;;;;;16.12;91.43;101497.34;5017888;28;45372;-73
2022/09/11 05:15:30;;;;;;;;;23.67;23.67;;;;;16.17;90.92;101502.97;5030089;28;45387;-74
2022/09/11 05:17:56;;;;;;;;;24.67;21.67;;;;;16.16;90.74;101514.69;5028663;28;45497;-73
2022/09/11 05:20:22;;;;;;;;;23.00;23.00;;;;;16.13;91.03;101513.25;5017417;28;45532;-73
2022/09/11 05:22:47;;;;;;;;;21.00;20.33;;;;;16.08;89.97;101504.13;5039112;28;45277;-73
2022/09/11 05:25:13;;;;;;;;;25.33;24.67;;;;;16.18;89.76;101511.81;5025573;28;45444;-73
2022/09/11 05:27:38;;;;;;;;;19.33;19.00;;;;;16.15;90.12;101518.41;5017535;28;45354;-73
2022/09/11 05:30:05;;;;;;;;;22.67;21.00;;;;;16.10;90.88;101513.63;5017462;28;45299;-74
2022/09/11 05:32:30;;;;;;;;;23.67;21.67;;;;;16.09;91.82;101521.84;5016742;28;45436;-73
2022/09/11 05:34:56;;;;;;;;;25.33;25.33;;;;;16.00;93.29;101526.53;5041403;28;45467;-73
2022/09/11 05:37:21;;;;;;;;;23.67;23.00;;;;;15.99;92.58;101528.38;5023108;28;45321;-73
2022/09/11 05:39:46;;;;;;;;;28.00;26.33;;;;;16.01;92.95;101537.06;5017253;28;46643;-73
2022/09/11 05:42:12;;;;;;;;;18.67;18.67;;;;;15.93;92.57;101537.16;5017620;28;45340;-73
2022/09/11 05:44:37;;;;;;;;;19.67;19.67;;;;;15.96;92.47;101535.94;5017129;28;45457;-73
2022/09/11 05:47:03;;;;;;;;;29.67;24.00;;;;;16.04;91.84;101546.56;5022676;28;46406;-74
2022/09/11 05:49:28;;;;;;;;;20.33;20.00;;;;;16.04;91.63;101543.88;5017076;28;45460;-74
2022/09/11 05:51:54;;;;;;;;;17.33;16.00;;;;;16.03;91.16;101543.06;5030530;28;45469;-73
2022/09/11 05:54:19;;;;;;;;;19.00;17.67;;;;;16.07;90.75;101543.50;5016744;28;50136;-73
2022/09/11 05:56:44;;;;;;;;;22.00;21.00;;;;;16.11;90.53;101544.81;5017056;28;45296;-73
2022/09/11 05:59:13;;;;;;;;;18.67;18.00;;;;;16.14;90.59;101565.03;5015565;28;48898;-73
2022/09/11 06:01:38;;;;;;;;;20.00;19.00;;;;;16.11;91.67;101560.03;5017060;28;45157;-74
2022/09/11 06:04:08;;;;;;;;;21.67;21.67;;;;;16.07;91.62;101564.94;5017104;28;45469;-73
2022/09/11 06:06:34;;;;;;;;;18.67;16.00;;;;;16.03;91.48;101564.53;5028697;28;46471;-73
2022/09/11 06:08:59;;;;;;;;;19.00;17.00;;;;;16.01;91.49;101550.47;5017802;28;45851;-74
2022/09/11 06:11:24;;;;;;;;;17.67;17.00;;;;;16.09;91.26;101557.56;5017217;28;45171;-73
2022/09/11 06:13:50;;;;;;;;;18.67;14.67;;;;;16.14;91.27;101556.97;5031217;28;50923;-74
2022/09/11 06:16:19;;;;;;;;;21.33;17.33;;;;;16.17;91.73;101555.75;5035354;28;46421;-73
2022/09/11 06:18:49;;;;;;;;;15.00;15.00;;;;;16.22;91.70;101564.06;5052510;28;47235;-74
2022/09/11 06:21:18;;;;;;;;;16.00;15.33;;;;;16.17;91.29;101558.44;5031000;28;45282;-74
2022/09/11 06:23:45;;;;;;;;;13.00;12.67;;;;;16.20;91.26;101550.84;5028178;28;45328;-74
2022/09/11 06:26:13;;;;;;;;;14.33;13.33;;;;;16.32;90.44;101558.38;5017882;28;45408;-73
2022/09/11 06:28:39;;;;;;;;;16.00;14.00;;;;;16.32;90.93;101555.69;5016500;28;46203;-73
2022/09/11 06:31:11;;;;;;;;;16.00;16.00;;;;;16.36;90.08;101554.28;5016933;28;45286;-73
2022/09/11 06:33:39;;;;;;;;;16.33;16.33;;;;;16.40;89.92;101558.22;5017070;28;45302;-74
2022/09/11 06:36:07;;;;;;;;;14.33;14.33;;;;;16.40;89.76;101542.97;5029383;28;46541;-73
2022/09/11 06:38:32;;;;;;;;;17.33;17.33;;;;;16.45;88.80;101560.34;5016574;28;46315;-73
2022/09/11 06:41:02;;;;;;;;;14.67;14.67;;;;;16.45;89.14;101566.53;5016637;28;45285;-73
2022/09/11 06:43:27;;;;;;;;;16.00;14.67;;;;;16.45;88.85;101554.97;5016422;28;45313;-73
2022/09/11 06:45:53;;;;;;;;;16.67;16.67;;;;;16.48;88.95;101554.59;5015343;28;45387;-75
2022/09/11 06:48:19;;;;;;;;;17.67;17.67;;;;;16.49;89.06;101553.59;5016160;28;45427;-74
2022/09/11 06:50:44;;;;;;;;;17.00;17.00;;;;;16.57;88.73;101563.31;5026089;28;45690;-74
2022/09/11 06:53:11;;;;;;;;;17.67;16.67;;;;;16.54;88.62;101559.19;5020532;28;45226;-78
2022/09/11 06:55:40;;;;;;;;;17.33;17.33;;;;;16.56;88.34;101561.66;5023426;27;45399;-75
2022/09/11 06:58:07;;;;;;;;;21.67;19.67;;;;;16.44;89.10;101550.63;5031156;28;48431;-75
2022/09/11 07:00:35;;;;;;;;;22.00;19.00;;;;;16.41;89.53;101558.03;5015846;28;46403;-75
2022/09/11 07:03:01;;;;;;;;;19.67;18.00;;;;;16.41;89.24;101559.91;5018129;28;45226;-74
2022/09/11 07:05:27;;;;;;;;;19.67;19.33;;;;;16.42;89.86;101561.56;5014953;28;46482;-75
2022/09/11 07:07:52;;;;;;;;;22.00;19.33;;;;;16.44;89.53;101556.00;5028605;28;47222;-76
2022/09/11 07:10:18;;;;;;;;;24.67;22.00;;;;;16.51;89.70;101571.13;5017720;28;45300;-74
2022/09/11 07:12:43;;;;;;;;;21.00;19.33;;;;;16.51;89.41;101565.78;5016318;28;45392;-78
2022/09/11 07:15:09;;;;;;;;;19.33;19.33;;;;;16.65;89.84;101573.94;5049307;28;46014;-76
2022/09/11 07:17:35;;;;;;;;;23.00;23.00;;;;;16.70;89.81;101568.78;5025605;28;46702;-77
2022/09/11 07:20:04;;;;;;;;;20.33;20.33;;;;;16.74;89.84;101563.88;5015942;28;45542;-76
2022/09/11 07:22:34;;;;;;;;;22.00;21.00;;;;;16.75;88.99;101563.69;5020196;28;45274;-76
2022/09/11 07:24:59;;;;;;;;;25.33;24.33;;;;;16.75;89.16;101550.25;5015755;28;45467;-76
2022/09/11 07:27:26;;;;;;;;;20.33;19.00;;;;;16.92;89.23;101571.44;5021837;28;46987;-77
2022/09/11 07:29:51;;;;;;;;;21.00;21.00;;;;;16.95;89.58;101554.94;5022571;28;45392;-76
2022/09/11 07:32:17;;;;;;;;;21.33;21.33;;;;;17.08;89.21;101572.16;5016013;28;45385;-76
2022/09/11 07:34:42;;;;;;;;;22.33;22.00;;;;;17.09;89.48;101565.78;5025971;28;46325;-77
2022/09/11 07:37:08;;;;;;;;;26.33;24.33;;;;;17.15;89.25;101554.25;5018464;28;45338;-76
2022/09/11 07:39:33;;;;;;;;;24.00;23.67;;;;;17.16;88.60;101562.09;5022265;28;47309;-76
2022/09/11 07:41:59;;;;;;;;;26.00;23.67;;;;;17.22;88.67;101560.50;5030881;28;45488;-77
2022/09/11 07:44:24;;;;;;;;;24.67;23.00;;;;;17.37;88.92;101572.94;5019920;28;46907;-76
2022/09/11 07:46:50;;;;;;;;;25.00;23.67;;;;;17.37;88.29;101568.41;5016113;28;45244;-77
2022/09/11 07:49:16;;;;;;;;;30.33;28.67;;;;;17.44;88.73;101563.06;5024511;27;45707;-76
2022/09/11 07:51:42;;;;;;;;;30.33;28.67;;;;;17.48;88.38;101567.00;5029630;28;45269;-77
2022/09/11 07:54:09;;;;;;;;;30.67;28.00;;;;;17.54;88.57;101568.88;5022487;28;46120;-77
2022/09/11 07:56:35;;;;;;;;;34.00;29.67;;;;;17.61;88.23;101573.47;5036088;28;47229;-76
2022/09/11 07:59:01;;;;;;;;;32.00;29.00;;;;;17.58;88.01;101563.09;5017113;28;45324;-77
2022/09/11 08:01:28;;;;;;;;;36.67;32.67;;;;;17.64;88.01;101556.94;5025659;28;45412;-77
2022/09/11 08:04:02;;;;;;;;;34.00;30.33;;;;;17.64;87.65;101559.63;5018460;28;45331;-77
2022/09/11 08:06:30;;;;;;;;;36.67;32.00;;;;;17.62;87.84;101561.66;5027816;28;47078;-77
2022/09/11 08:08:58;;;;;;;;;37.33;32.67;;;;;17.72;88.13;101564.00;5021510;28;45539;-77
2022/09/11 08:11:24;;;;;;;;;39.67;34.00;;;;;17.82;87.64;101577.03;5028069;28;45463;-77
2022/09/11 08:13:51;;;;;;;;;32.00;30.00;;;;;17.87;88.20;101578.09;5024304;28;45488;-77
2022/09/11 08:16:18;;;;;;;;;33.00;30.00;;;;;17.93;87.98;101571.09;5022709;27;45614;-77
2022/09/11 08:18:44;;;;;;;;;30.33;28.33;;;;;18.02;88.20;101564.47;5019542;28;45384;-76
2022/09/11 08:21:10;;;;;;;;;34.00;31.33;;;;;18.15;88.44;101571.78;5021120;28;45300;-77
2022/09/11 08:23:39;;;;;;;;;36.67;32.67;;;;;18.22;88.37;101569.09;5022598;28;45506;-77
2022/09/11 08:26:07;;;;;;;;;34.33;31.33;;;;;18.36;88.07;101574.47;5018900;28;48286;-77
2022/09/11 08:28:34;;;;;;;;;35.00;32.00;;;;;18.33;87.48;101569.50;5024738;28;45426;-79
2022/09/11 08:31:00;;;;;;;;;35.67;31.33;;;;;18.32;87.43;101563.31;5026124;28;45501;-78
2022/09/11 08:33:26;;;;;;;;;33.33;30.00;;;;;18.33;87.26;101564.97;5019438;28;45296;-78
2022/09/11 08:35:52;;;;;;;;;31.33;30.00;;;;;18.32;87.77;101566.00;5016477;28;45730;-77
2022/09/11 08:38:17;;;;;;;;;30.00;29.00;;;;;18.33;87.63;101564.97;5015299;28;45550;-78
2022/09/11 08:40:44;;;;;;;;;31.00;29.33;;;;;18.35;87.98;101570.13;5016433;28;45373;-77
2022/09/11 08:43:32;;;;;;;;;31.00;27.67;;;;;18.39;88.03;101568.69;5016726;28;45396;-77
2022/09/11 08:46:04;;;;;;;;;29.67;28.00;;;;;18.42;88.03;101562.88;5014820;28;45855;-77
2022/09/11 08:48:55;;;;;;;;;30.67;29.67;;;;;18.52;88.07;101568.69;5045953;28;45545;-77
2022/09/11 08:51:21;;;;;;;;;31.00;29.67;;;;;18.55;87.87;101573.66;5027476;28;45398;-78
2022/09/11 08:53:47;;;;;;;;;31.00;29.33;;;;;18.55;87.76;101572.81;5034611;28;47249;-77
2022/09/11 08:56:22;;;;;;;;;36.33;32.67;;;;;18.51;87.82;101561.66;5023696;28;48524;-77
2022/09/11 08:59:01;;;;;;;;;31.67;30.00;;;;;18.62;87.74;101579.03;5018845;28;45370;-78
2022/09/11 09:01:42;;;;;;;;;33.33;29.67;;;;;18.64;87.81;101571.56;5018547;28;45661;-77
2022/09/11 09:04:40;;;;;;;;;30.33;28.00;;;;;18.67;87.78;101567.63;5025308;27;46670;-77
2022/09/11 09:07:38;;;;;;;;;28.33;28.00;;;;;18.79;88.00;101575.91;5017556;28;46699;-77
2022/09/11 09:10:32;;;;;;;;;34.00;29.67;;;;;18.86;87.93;101565.13;5043526;28;45710;-77
2022/09/11 09:13:01;;;;;;;;;27.67;27.00;;;;;18.94;87.61;101578.38;5031264;28;45902;-77
2022/09/11 09:15:55;;;;;;;;;26.33;26.00;;;;;18.99;87.79;101578.56;5021531;28;45514;-78
2022/09/11 09:18:31;;;;;;;;;22.67;21.67;;;;;19.03;87.91;101570.88;5009194;28;46711;-76
2022/09/11 09:21:19;;;;;;;;;25.33;24.67;;;;;19.10;87.99;101573.59;5018934;28;45324;-77
2022/09/11 09:23:55;;;;;;;;;24.00;24.00;;;;;19.16;87.95;101576.28;5018540;28;45353;-77
2022/09/11 09:26:28;;;;;;;;;29.00;27.33;;;;;19.22;87.96;101576.47;5030014;27;47347;-77
2022/09/11 09:28:58;;;;;;;;;27.00;27.00;;;;;19.38;87.84;101583.25;5026625;28;46725;-77
2022/09/11 09:31:28;;;;;;;;;9.00;9.00;;;;;19.36;87.34;101571.88;5029743;28;45435;-77
2022/09/11 09:34:01;;;;;;;;;9.00;7.67;;;;;19.44;86.95;101571.63;5023428;28;45294;-77
2022/09/11 09:36:32;;;;;;;;;7.67;7.67;;;;;19.54;86.50;101585.47;5016941;28;45454;-78
2022/09/11 09:38:58;;;;;;;;;17.67;17.67;;;;;19.59;85.01;101567.81;5019782;28;46397;-76
2022/09/11 09:41:48;;;;;;;;;17.00;17.00;;;;;19.67;86.19;101575.69;5016911;28;45428;-76
2022/09/11 09:44:22;;;;;;;;;16.00;15.00;;;;;19.72;86.46;101572.34;5017236;28;45486;-75
2022/09/11 09:46:52;;;;;;;;;15.67;15.67;;;;;19.83;86.76;101574.34;5031871;28;45523;-76
2022/09/11 09:49:25;;;;;;;;;8.67;8.67;;;;;19.98;85.69;101573.22;5035534;28;47488;-76
2022/09/11 09:51:54;;;;;;;;;7.67;6.33;;;;;20.13;86.05;101559.44;5033765;28;45456;-75
2022/09/11 09:54:22;;;;;;;;;9.67;9.00;;;;;20.38;85.13;101572.16;5019402;28;45324;-78
2022/09/11 09:57:01;;;;;;;;;7.00;7.00;;;;;20.56;84.83;101566.78;5017779;28;45582;-77
2022/09/11 09:59:34;;;;;;;;;4.00;4.00;;;;;20.74;82.94;101561.66;5017002;28;45480;-77
2022/09/11 10:01:59;;;;;;;;;7.00;6.33;;;;;20.92;82.36;101566.28;5017547;28;45532;-76
2022/09/11 10:04:28;;;;;;;;;8.33;7.00;;;;;21.02;82.38;101563.06;5017703;28;45349;-75
2022/09/11 10:07:07;;;;;;;;;6.33;6.33;;;;;21.22;81.82;101560.09;5017205;28;45488;-75
2022/09/11 10:09:33;;;;;;;;;4.00;4.00;;;;;21.30;80.82;101554.41;5017083;28;45888;-75
2022/09/11 10:12:02;;;;;;;;;5.00;4.00;;;;;21.48;80.36;101551.88;5017304;28;45381;-76
2022/09/11 10:14:31;;;;;;;;;4.67;4.67;;;;;21.67;80.62;101556.22;5020878;28;45425;-75
2022/09/11 10:16:58;;;;;;;;;7.00;7.00;;;;;21.82;80.48;101544.19;5034057;28;45435;-74
2022/09/11 10:19:39;;;;;;;;;5.00;5.00;;;;;22.00;78.08;101550.59;5035303;28;46355;-74
2022/09/11 10:22:29;;;;;;;;;5.00;5.00;;;;;22.10;77.50;101528.34;5030548;28;45491;-74
2022/09/11 10:25:10;;;;;;;;;6.00;5.00;;;;;22.30;77.07;101530.75;5017127;28;45471;-75
2022/09/11 10:27:58;;;;;;;;;6.00;6.00;;;;;22.53;77.34;101540.75;5025562;28;46274;-76
2022/09/11 10:30:38;;;;;;;;;6.33;6.33;;;;;22.68;76.97;101537.59;5031652;28;48454;-75
2022/09/11 10:33:38;;;;;;;;;4.00;4.00;;;;;22.87;76.41;101537.47;5017048;28;45448;-75
2022/09/11 10:36:07;;;;;;;;;4.33;4.33;;;;;23.01;75.12;101534.50;5019173;27;45545;-77
2022/09/11 10:38:47;;;;;;;;;6.00;4.67;;;;;23.09;74.62;101525.97;5016635;28;45519;-76
2022/09/11 10:41:12;;;;;;;;;6.67;6.67;;;;;23.23;73.35;101526.53;5016757;28;46614;-76
2022/09/11 10:43:49;;;;;;;;;7.33;7.33;;;;;23.36;73.05;101519.16;5029152;28;46369;-77
2022/09/11 10:46:17;;;;;;;;;6.67;6.67;;;;;23.45;73.02;101518.59;5017065;28;45573;-76
2022/09/11 10:48:53;;;;;;;;;6.33;6.00;;;;;23.50;73.33;101517.88;5016357;28;45357;-77
2022/09/11 10:51:19;;;;;;;;;6.00;5.00;;;;;23.54;72.30;101513.59;5029667;28;46031;-75
2022/09/11 10:53:58;;;;;;;;;5.00;5.00;;;;;23.63;70.87;101514.03;5017976;28;45346;-77
2022/09/11 10:56:25;;;;;;;;;3.67;3.67;;;;;23.70;70.14;101520.09;5025669;28;45399;-76
2022/09/11 10:58:56;;;;;;;;;4.00;4.00;;;;;23.74;70.26;101514.19;5028837;28;45377;-75
2022/09/11 11:01:22;;;;;;;;;6.00;6.00;;;;;23.68;70.51;101505.94;5023252;28;47576;-77
2022/09/11 11:03:47;;;;;;;;;5.00;5.00;;;;;23.85;70.21;101509.78;5022456;28;45248;-77
2022/09/11 11:06:41;;;;;;;;;4.00;4.00;;;;;24.00;70.02;101504.59;5016861;28;45341;-77
2022/09/11 11:09:15;;;;;;;;;4.67;4.67;;;;;24.20;69.18;101508.72;5033190;28;45329;-77
2022/09/11 11:11:50;;;;;;;;;5.00;5.00;;;;;24.11;67.20;101491.16;5029021;28;47290;-78
2022/09/11 11:14:45;;;;;;;;;5.67;4.67;;;;;24.07;67.10;101496.28;5020988;28;45455;-77
2022/09/11 11:17:13;;;;;;;;;3.33;3.33;;;;;23.94;66.92;101502.84;5021408;28;45653;-77
2022/09/11 11:20:04;;;;;;;;;5.00;5.00;;;;;23.77;67.05;101490.13;5029427;28;45286;-77
2022/09/11 11:23:05;;;;;;;;;4.00;4.00;;;;;23.62;68.77;101481.72;5028140;28;45271;-78
2022/09/11 11:25:42;;;;;;;;;4.00;4.00;;;;;23.56;69.44;101488.94;5018510;28;45468;-78
2022/09/11 11:28:29;;;;;;;;;3.00;3.00;;;;;23.62;70.15;101495.28;5015821;28;45558;-77